createdAt,value
2022-08-14T00:01:54.916Z,15.20
2022-08-14T00:04:34.926Z,15.43
2022-08-14T00:07:10.151Z,14.73
2022-08-14T00:09:39.913Z,14.95
2022-08-14T00:12:24.326Z,18.92
2022-08-14T00:14:53.193Z,16.63
2022-08-14T00:17:21.963Z,16.60
2022-08-14T00:19:48.629Z,22.55
2022-08-14T00:22:44.548Z,15.23
2022-08-14T00:25:09.746Z,18.52
2022-08-14T00:27:38.181Z,17.13
2022-08-14T00:30:11.124Z,16.33
2022-08-14T00:32:52.080Z,21.25
2022-08-14T00:35:35.740Z,17.58
2022-08-14T00:38:09.626Z,16.95
2022-08-14T00:40:36.720Z,16.55
2022-08-14T00:43:04.543Z,17.08
2022-08-14T00:45:31.553Z,15.07
2022-08-14T00:47:59.811Z,15.70
2022-08-14T00:50:31.142Z,16.63
2022-08-14T00:53:00.299Z,14.55
2022-08-14T00:55:30.103Z,23.08
2022-08-14T00:58:17.298Z,18.27
2022-08-14T01:00:57.547Z,18.30
2022-08-14T01:03:25.960Z,17.42
2022-08-14T01:05:53.077Z,17.75
2022-08-14T01:08:51.539Z,16.90
2022-08-14T01:11:18.884Z,15.98
2022-08-14T01:13:46.035Z,16.63
2022-08-14T01:16:27.415Z,15.43
2022-08-14T01:19:16.048Z,14.95
2022-08-14T01:21:47.175Z,16.95
2022-08-14T01:24:22.847Z,15.32
2022-08-14T01:26:58.002Z,18.48
2022-08-14T01:29:32.782Z,16.27
2022-08-14T01:32:15.610Z,16.83
2022-08-14T01:35:20.712Z,14.80
2022-08-14T01:37:54.819Z,14.60
2022-08-14T01:40:25.697Z,15.82
2022-08-14T01:43:02.620Z,17.17
2022-08-14T01:45:31.545Z,15.13
2022-08-14T01:48:13.365Z,13.70
2022-08-14T01:50:41.964Z,16.70
2022-08-14T01:53:09.556Z,17.15
2022-08-14T01:55:40.445Z,17.00
2022-08-14T01:58:19.386Z,17.20
2022-08-14T02:00:55.050Z,16.90
2022-08-14T02:06:03.841Z,20.13
2022-08-14T02:08:53.282Z,15.93
2022-08-14T02:11:22.601Z,17.45
2022-08-14T02:14:10.929Z,19.60
2022-08-14T02:16:45.208Z,15.57
2022-08-14T02:19:18.533Z,15.57
2022-08-14T02:21:49.046Z,15.50
2022-08-14T02:24:38.755Z,15.30
2022-08-14T02:28:22.590Z,16.98
2022-08-14T02:29:59.988Z,16.80
2022-08-14T02:32:30.538Z,18.45
2022-08-14T02:35:17.848Z,17.02
2022-08-14T02:37:49.962Z,16.02
2022-08-14T02:40:32.044Z,16.98
2022-08-14T02:43:02.461Z,18.90
2022-08-14T02:45:38.310Z,17.08
2022-08-14T02:49:04.971Z,16.58
2022-08-14T02:51:01.312Z,15.25
2022-08-14T02:53:33.298Z,16.92
2022-08-14T02:56:02.693Z,17.50
2022-08-14T02:58:33.354Z,16.38
2022-08-14T03:01:01.640Z,18.58
2022-08-14T03:03:28.608Z,18.63
2022-08-14T03:05:58.735Z,21.10
2022-08-14T03:08:33.326Z,16.83
2022-08-14T03:11:07.639Z,19.25
2022-08-14T03:13:40.786Z,17.20
2022-08-14T03:16:20.171Z,19.67
2022-08-14T03:19:00.323Z,17.98
2022-08-14T03:21:30.145Z,18.83
2022-08-14T03:24:01.143Z,17.92
2022-08-14T03:26:29.895Z,19.05
2022-08-14T03:28:57.182Z,17.48
2022-08-14T03:31:29.438Z,20.50
2022-08-14T03:34:00.146Z,18.27
2022-08-14T03:37:51.841Z,15.70
2022-08-14T03:39:22.245Z,18.38
2022-08-14T03:41:53.131Z,16.40
2022-08-14T03:45:18.537Z,20.17
2022-08-14T03:47:08.178Z,19.88
2022-08-14T03:49:35.224Z,19.38
2022-08-14T03:52:38.367Z,16.77
2022-08-14T03:54:55.350Z,15.73
2022-08-14T03:57:22.820Z,16.90
2022-08-14T03:59:50.710Z,16.50
2022-08-14T04:02:32.882Z,16.77
2022-08-14T04:05:11.756Z,19.05
2022-08-14T04:07:49.432Z,17.15
2022-08-14T04:10:32.093Z,19.65
2022-08-14T04:13:00.078Z,17.85
2022-08-14T04:15:30.576Z,16.63
2022-08-14T04:17:58.973Z,16.13
2022-08-14T04:20:27.442Z,21.92
2022-08-14T04:22:54.703Z,18.70
2022-08-14T04:25:22.477Z,15.85
2022-08-14T04:28:02.425Z,14.13
2022-08-14T04:30:32.770Z,18.45
2022-08-14T04:33:05.566Z,16.92
2022-08-14T04:35:55.265Z,17.23
2022-08-14T04:38:42.782Z,16.65
2022-08-14T04:41:30.540Z,19.40
2022-08-14T04:43:57.773Z,18.60
2022-08-14T04:46:56.914Z,15.65
2022-08-14T04:49:15.221Z,16.10
2022-08-14T04:51:46.990Z,15.68
2022-08-14T04:54:26.938Z,16.45
2022-08-14T04:56:56.191Z,14.75
2022-08-14T04:59:24.111Z,16.77
2022-08-14T05:01:55.171Z,15.85
2022-08-14T05:04:25.098Z,16.48
2022-08-14T05:06:55.163Z,16.17
2022-08-14T05:09:24.111Z,15.43
2022-08-14T05:11:51.724Z,21.58
2022-08-14T05:14:45.720Z,18.98
2022-08-14T05:17:13.393Z,17.02
2022-08-14T05:19:45.053Z,16.25
2022-08-14T05:22:27.329Z,15.10
2022-08-14T05:24:53.971Z,16.35
2022-08-14T05:27:23.194Z,16.13
2022-08-14T05:29:55.123Z,16.38
2022-08-14T05:32:23.444Z,13.60
2022-08-14T05:34:58.047Z,17.90
2022-08-14T05:37:25.169Z,18.27
2022-08-14T05:39:53.196Z,14.95
2022-08-14T05:42:22.005Z,14.77
2022-08-14T05:44:55.902Z,14.05
2022-08-14T05:47:23.491Z,14.52
2022-08-14T05:49:51.435Z,13.10
2022-08-14T05:52:18.389Z,13.60
2022-08-14T05:54:45.081Z,14.73
2022-08-14T05:57:11.726Z,16.13
2022-08-14T05:59:39.903Z,15.40
2022-08-14T06:02:11.383Z,13.80
2022-08-14T06:04:39.488Z,15.02
2022-08-14T06:07:06.470Z,18.65
2022-08-14T06:09:35.732Z,15.45
2022-08-14T06:12:09.799Z,14.23
2022-08-14T06:14:37.769Z,14.98
2022-08-14T06:17:06.234Z,16.10
2022-08-14T06:19:32.901Z,13.63
2022-08-14T06:21:59.825Z,14.82
2022-08-14T06:24:27.176Z,15.90
2022-08-14T06:27:04.255Z,16.17
2022-08-14T06:29:34.729Z,15.35
2022-08-14T06:32:37.306Z,12.93
2022-08-14T06:35:11.738Z,14.95
2022-08-14T06:37:42.712Z,15.32
2022-08-14T06:40:25.535Z,15.07
2022-08-14T06:42:56.503Z,12.60
2022-08-14T06:45:26.448Z,17.95
2022-08-14T06:47:54.122Z,11.43
2022-08-14T06:50:28.141Z,10.93
2022-08-14T06:52:55.971Z,13.68
2022-08-14T06:55:27.736Z,11.80
2022-08-14T06:57:56.598Z,12.05
2022-08-14T07:00:30.406Z,12.23
2022-08-14T07:03:17.264Z,10.67
2022-08-14T07:05:55.418Z,11.60
2022-08-14T07:08:29.604Z,13.05
2022-08-14T07:11:00.808Z,11.25
2022-08-14T07:13:28.481Z,12.57
2022-08-14T07:16:00.665Z,10.30
2022-08-14T07:18:34.299Z,10.73
2022-08-14T07:21:02.500Z,10.93
2022-08-14T07:23:31.136Z,13.65
2022-08-14T07:25:59.376Z,9.90
2022-08-14T07:28:27.453Z,11.25
2022-08-14T07:31:04.646Z,11.52
2022-08-14T07:33:58.311Z,9.82
2022-08-14T07:36:27.308Z,11.25
2022-08-14T07:39:00.694Z,12.82
2022-08-14T07:41:34.004Z,10.10
2022-08-14T07:44:28.887Z,10.32
2022-08-14T07:46:49.855Z,11.18
2022-08-14T07:49:18.197Z,9.45
2022-08-14T07:51:49.239Z,11.35
2022-08-14T07:54:23.697Z,11.02
2022-08-14T07:57:06.266Z,10.02
2022-08-14T07:59:42.397Z,9.65
2022-08-14T08:02:19.707Z,9.65
2022-08-14T08:04:55.111Z,11.68
2022-08-14T08:07:30.153Z,8.90
2022-08-14T08:09:59.536Z,10.63
2022-08-14T08:12:29.643Z,11.18
2022-08-14T08:15:02.990Z,9.00
2022-08-14T08:17:38.062Z,9.70
2022-08-14T08:20:11.642Z,9.35
2022-08-14T08:22:40.922Z,10.48
2022-08-14T08:25:13.974Z,10.07
2022-08-14T08:30:22.149Z,10.55
2022-08-14T08:32:51.455Z,9.57
2022-08-14T08:35:25.728Z,9.07
2022-08-14T08:39:15.437Z,11.15
2022-08-14T08:41:04.933Z,9.52
2022-08-14T08:43:37.030Z,10.27
2022-08-14T08:46:09.098Z,8.73
2022-08-14T08:48:53.672Z,14.15
2022-08-14T08:51:33.391Z,11.57
2022-08-14T08:54:05.276Z,9.98
2022-08-14T08:56:39.989Z,8.63
2022-08-14T08:59:42.310Z,9.77
2022-08-14T09:02:10.553Z,9.50
2022-08-14T09:04:45.191Z,7.57
2022-08-14T09:07:26.780Z,10.98
2022-08-14T09:09:59.049Z,11.95
2022-08-14T09:12:31.367Z,11.52
2022-08-14T09:15:01.085Z,9.82
2022-08-14T09:17:28.158Z,9.23
2022-08-14T09:19:55.347Z,9.45
2022-08-14T09:22:34.811Z,11.20
2022-08-14T09:25:07.232Z,10.52
2022-08-14T09:27:35.438Z,8.15
2022-08-14T09:30:05.041Z,10.50
2022-08-14T09:33:11.667Z,10.27
2022-08-14T09:36:18.752Z,8.30
2022-08-14T09:39:02.077Z,10.07
2022-08-14T09:42:21.717Z,11.02
2022-08-14T09:45:14.014Z,9.27
2022-08-14T09:47:52.105Z,10.10
2022-08-14T09:50:46.648Z,10.98
2022-08-14T09:54:12.693Z,10.23
2022-08-14T09:56:30.243Z,10.00
2022-08-14T09:59:10.724Z,10.68
2022-08-14T10:01:37.585Z,12.30
2022-08-14T10:04:34.600Z,8.57
2022-08-14T10:07:08.429Z,10.00
2022-08-14T10:09:59.883Z,10.00
2022-08-14T10:12:53.093Z,11.90
2022-08-14T10:15:30.095Z,9.77
2022-08-14T10:18:17.590Z,9.20
2022-08-14T10:20:57.553Z,9.63
2022-08-14T10:23:27.936Z,10.25
2022-08-14T10:26:08.084Z,11.50
2022-08-14T10:31:44.559Z,9.35
2022-08-14T10:34:18.495Z,11.32
2022-08-14T10:36:50.080Z,10.90
2022-08-14T10:39:20.692Z,13.30
2022-08-14T10:41:49.371Z,9.30
2022-08-14T10:44:29.870Z,13.02
2022-08-14T10:47:39.185Z,10.52
2022-08-14T10:49:58.210Z,10.48
2022-08-14T10:52:33.794Z,10.85
2022-08-14T10:55:19.424Z,9.35
2022-08-14T10:57:53.072Z,9.40
2022-08-14T11:00:29.813Z,10.23
2022-08-14T11:03:19.776Z,8.68
2022-08-14T11:05:56.033Z,11.20
2022-08-14T11:08:34.101Z,11.52
2022-08-14T11:11:04.075Z,11.02
2022-08-14T11:13:32.032Z,9.75
2022-08-14T11:16:01.364Z,9.02
2022-08-14T11:18:35.826Z,9.10
2022-08-14T11:21:07.001Z,9.05
2022-08-14T11:23:41.341Z,9.50
2022-08-14T11:26:11.924Z,11.68
2022-08-14T11:28:47.859Z,11.00
2022-08-14T11:31:19.886Z,11.63
2022-08-14T11:33:53.125Z,9.95
2022-08-14T11:36:24.080Z,8.10
2022-08-14T11:39:22.854Z,9.05
2022-08-14T11:42:57.143Z,9.68
2022-08-14T11:44:49.859Z,8.63
2022-08-14T11:47:20.673Z,8.52
2022-08-14T11:49:48.202Z,18.58
2022-08-14T11:52:19.403Z,9.05
2022-08-14T11:54:58.218Z,8.75
2022-08-14T11:57:25.459Z,8.23
2022-08-14T12:00:03.431Z,11.30
2022-08-14T12:03:00.661Z,7.82
2022-08-14T12:05:16.780Z,10.15
2022-08-14T12:07:51.200Z,9.27
2022-08-14T12:10:26.954Z,8.45
2022-08-14T12:13:12.800Z,11.40
2022-08-14T12:15:44.862Z,9.77
2022-08-14T12:18:19.461Z,9.55
2022-08-14T12:20:52.467Z,11.93
2022-08-14T12:23:25.228Z,10.67
2022-08-14T12:26:31.950Z,9.68
2022-08-14T12:31:44.828Z,7.20
2022-08-14T12:34:24.265Z,8.55
2022-08-14T12:37:06.257Z,8.98
2022-08-14T12:39:40.461Z,9.88
2022-08-14T12:42:08.090Z,10.65
2022-08-14T12:44:42.633Z,8.60
2022-08-14T12:47:13.612Z,11.23
2022-08-14T12:49:57.760Z,8.07
2022-08-14T12:52:43.046Z,12.05
2022-08-14T12:55:22.195Z,10.20
2022-08-14T12:57:53.215Z,12.35
2022-08-14T13:00:25.483Z,13.60
2022-08-14T13:02:56.530Z,11.80
2022-08-14T13:05:27.495Z,11.02
2022-08-14T13:07:55.375Z,11.20
2022-08-14T13:10:51.972Z,9.15
2022-08-14T13:13:15.513Z,13.60
2022-08-14T13:15:46.916Z,8.43
2022-08-14T13:18:17.112Z,9.23
2022-08-14T13:20:51.333Z,10.55
2022-08-14T13:23:31.754Z,13.07
2022-08-14T13:26:00.355Z,8.52
2022-08-14T13:28:34.153Z,9.75
2022-08-14T13:31:11.304Z,7.97
2022-08-14T13:33:40.487Z,8.65
2022-08-14T13:36:09.810Z,9.18
2022-08-14T13:38:37.925Z,10.70
2022-08-14T13:41:06.185Z,9.82
2022-08-14T13:43:36.804Z,11.77
2022-08-14T13:46:03.973Z,7.28
2022-08-14T13:48:32.870Z,9.48
2022-08-14T13:51:03.272Z,7.95
2022-08-14T13:53:38.016Z,8.75
2022-08-14T13:56:06.617Z,8.40
2022-08-14T13:58:47.129Z,10.13
2022-08-14T14:01:17.215Z,8.25
2022-08-14T14:03:50.075Z,10.98
2022-08-14T14:06:19.149Z,8.52
2022-08-14T14:08:49.164Z,9.82
2022-08-14T14:11:19.486Z,11.55
2022-08-14T14:13:47.123Z,10.85
2022-08-14T14:16:26.267Z,12.20
2022-08-14T14:19:08.883Z,9.48
2022-08-14T14:21:37.532Z,13.18
2022-08-14T14:24:06.026Z,10.50
2022-08-14T14:26:33.302Z,10.82
2022-08-14T14:29:06.250Z,9.20
2022-08-14T14:31:38.752Z,12.13
2022-08-14T14:34:07.600Z,9.45
2022-08-14T14:36:43.953Z,9.90
2022-08-14T14:39:20.131Z,9.15
2022-08-14T14:41:56.050Z,9.25
2022-08-14T14:44:27.923Z,9.13
2022-08-14T14:46:54.870Z,14.13
2022-08-14T14:49:31.608Z,12.00
2022-08-14T14:52:16.849Z,7.78
2022-08-14T14:57:19.568Z,9.68
2022-08-14T14:59:46.386Z,10.45
2022-08-14T15:02:35.856Z,9.98
2022-08-14T15:05:05.176Z,8.55
2022-08-14T15:07:32.518Z,10.68
2022-08-14T15:10:00.054Z,9.52
2022-08-14T15:12:55.109Z,12.40
2022-08-14T15:15:14.979Z,11.93
2022-08-14T15:17:43.372Z,11.45
2022-08-14T15:20:17.118Z,12.57
2022-08-14T15:22:57.067Z,16.80
2022-08-14T15:25:23.693Z,15.68
2022-08-14T15:27:51.177Z,14.50
2022-08-14T15:30:23.693Z,18.10
2022-08-14T15:32:51.379Z,14.10
2022-08-14T15:35:22.433Z,15.30
2022-08-14T15:37:56.026Z,16.73
2022-08-14T15:40:23.250Z,17.17
2022-08-14T15:42:49.936Z,16.15
2022-08-14T15:45:17.246Z,15.02
2022-08-14T15:47:44.201Z,13.93
2022-08-14T15:50:13.030Z,15.00
2022-08-14T15:52:41.520Z,14.57
2022-08-14T15:55:14.764Z,15.00
2022-08-14T15:58:01.890Z,18.70
2022-08-14T16:00:49.826Z,13.77
2022-08-14T16:03:24.949Z,20.15
2022-08-14T16:05:55.761Z,19.20
2022-08-14T16:08:26.562Z,14.30
2022-08-14T16:11:00.407Z,17.63
2022-08-14T16:13:39.662Z,14.10
2022-08-14T16:16:47.629Z,17.42
2022-08-14T16:19:10.111Z,15.07
2022-08-14T16:21:40.615Z,16.77
2022-08-14T16:24:28.007Z,18.05
2022-08-14T16:27:00.452Z,14.52
2022-08-14T16:29:29.959Z,15.68
2022-08-14T16:31:58.704Z,28.85
2022-08-14T16:34:46.854Z,14.60
2022-08-14T16:37:16.592Z,15.40
2022-08-14T16:39:44.494Z,14.77
2022-08-14T16:43:03.487Z,15.93
2022-08-14T16:45:00.091Z,16.45
2022-08-14T16:47:35.172Z,15.77
2022-08-14T16:50:09.447Z,15.18
2022-08-14T16:52:54.483Z,15.52
2022-08-14T16:55:30.422Z,16.10
2022-08-14T16:57:59.021Z,15.80
2022-08-14T17:00:28.725Z,16.88
2022-08-14T17:03:05.065Z,19.25
2022-08-14T17:05:41.719Z,18.27
2022-08-14T17:08:31.813Z,16.10
2022-08-14T17:11:10.633Z,16.02
2022-08-14T17:13:58.297Z,16.65
2022-08-14T17:16:35.764Z,16.13
2022-08-14T17:19:05.414Z,15.93
2022-08-14T17:21:38.405Z,18.75
2022-08-14T17:24:55.736Z,15.57
2022-08-14T17:27:00.094Z,18.48
2022-08-14T17:29:33.719Z,14.93
2022-08-14T17:32:22.043Z,17.42
2022-08-14T17:34:53.963Z,17.35
2022-08-14T17:37:35.553Z,18.70
2022-08-14T17:40:26.465Z,18.35
2022-08-14T17:43:01.779Z,20.63
2022-08-14T17:45:41.067Z,16.27
2022-08-14T17:49:10.133Z,18.52
2022-08-14T17:51:12.368Z,17.40
2022-08-14T17:53:53.421Z,18.15
2022-08-14T17:56:31.443Z,16.95
2022-08-14T17:59:06.320Z,16.35
2022-08-14T18:01:46.020Z,17.80
2022-08-14T18:04:27.855Z,17.42
2022-08-14T18:07:16.062Z,17.52
2022-08-14T18:09:57.080Z,17.30
2022-08-14T18:12:32.440Z,17.73
2022-08-14T18:15:17.445Z,17.23
2022-08-14T18:17:53.373Z,17.80
2022-08-14T18:21:40.565Z,20.27
2022-08-14T18:23:12.792Z,19.73
2022-08-14T18:25:50.461Z,18.10
2022-08-14T18:28:50.904Z,20.85
2022-08-14T18:31:20.378Z,18.65
2022-08-14T18:33:57.424Z,22.52
2022-08-14T18:36:47.685Z,19.48
2022-08-14T18:39:24.370Z,19.00
2022-08-14T18:41:53.197Z,19.67
2022-08-14T18:44:50.884Z,22.42
2022-08-14T18:47:21.189Z,17.92
2022-08-14T18:50:00.736Z,22.30
2022-08-14T18:52:32.029Z,26.77
2022-08-14T18:55:21.030Z,19.05
2022-08-14T18:58:26.569Z,17.33
2022-08-14T19:00:56.060Z,21.70
2022-08-14T19:03:34.296Z,20.38
2022-08-14T19:06:08.896Z,19.05
2022-08-14T19:08:44.245Z,22.73
2022-08-14T19:11:34.333Z,18.88
2022-08-14T19:14:04.655Z,19.67
2022-08-14T19:16:36.838Z,21.60
2022-08-14T19:19:08.800Z,19.95
2022-08-14T19:21:43.023Z,21.30
2022-08-14T19:24:29.676Z,22.55
2022-08-14T19:27:19.201Z,19.55
2022-08-14T19:29:47.843Z,19.05
2022-08-14T19:32:36.612Z,21.38
2022-08-14T19:35:17.156Z,19.65
2022-08-14T19:37:48.853Z,19.05
2022-08-14T19:43:09.566Z,24.40
2022-08-14T19:45:37.987Z,20.75
2022-08-14T19:48:15.699Z,27.20
2022-08-14T19:50:46.188Z,20.55
2022-08-14T19:53:17.459Z,21.60
2022-08-14T19:55:59.284Z,22.83
2022-08-14T19:58:54.841Z,20.05
2022-08-14T20:01:37.624Z,23.05
2022-08-14T20:04:46.195Z,18.65
2022-08-14T20:07:09.333Z,23.90
2022-08-14T20:11:03.118Z,23.20
2022-08-14T20:12:35.446Z,22.45
2022-08-14T20:15:17.776Z,24.38
2022-08-14T20:17:52.407Z,22.38
2022-08-14T20:20:32.101Z,21.02
2022-08-14T20:23:11.516Z,19.08
2022-08-14T20:25:56.848Z,19.08
2022-08-14T20:28:30.671Z,19.23
2022-08-14T20:31:18.664Z,24.40
2022-08-14T20:34:04.030Z,21.35
2022-08-14T20:36:36.989Z,21.92
2022-08-14T20:39:09.194Z,22.85
2022-08-14T20:41:49.848Z,22.83
2022-08-14T20:44:41.763Z,22.48
2022-08-14T20:47:15.051Z,19.90
2022-08-14T20:49:41.681Z,25.70
2022-08-14T20:52:18.838Z,22.23
2022-08-14T20:54:50.550Z,20.77
2022-08-14T20:57:18.798Z,21.05
2022-08-14T20:59:56.806Z,19.48
2022-08-14T21:02:38.417Z,21.13
2022-08-14T21:05:19.712Z,20.10
2022-08-14T21:07:50.932Z,17.73
2022-08-14T21:10:33.149Z,20.85
2022-08-14T21:13:25.666Z,20.80
2022-08-14T21:15:57.719Z,19.48
2022-08-14T21:18:28.654Z,18.75
2022-08-14T21:20:58.122Z,20.48
2022-08-14T21:23:25.178Z,24.50
2022-08-14T21:28:29.581Z,22.75
2022-08-14T21:30:57.830Z,24.52
2022-08-14T21:33:25.237Z,22.00
2022-08-14T21:35:55.084Z,21.38
2022-08-14T21:38:33.729Z,20.60
2022-08-14T21:41:41.859Z,18.75
2022-08-14T21:44:18.272Z,20.30
2022-08-14T21:46:53.609Z,22.80
2022-08-14T21:49:22.512Z,22.63
2022-08-14T21:51:57.102Z,19.25
2022-08-14T21:54:32.487Z,19.38
2022-08-14T21:57:16.451Z,20.67
2022-08-14T21:59:43.832Z,19.05
2022-08-14T22:02:32.591Z,19.27
2022-08-14T22:04:59.020Z,19.10
2022-08-14T22:07:29.292Z,19.23
2022-08-14T22:09:56.241Z,18.30
2022-08-14T22:12:47.339Z,17.70
2022-08-14T22:15:15.884Z,16.25
2022-08-14T22:17:44.507Z,18.17
2022-08-14T22:20:20.503Z,18.35
2022-08-14T22:22:47.529Z,15.10
2022-08-14T22:25:17.472Z,23.25
2022-08-14T22:27:55.901Z,15.13
2022-08-14T22:30:23.675Z,15.88
2022-08-14T22:32:57.546Z,20.05
2022-08-14T22:35:26.816Z,16.58
2022-08-14T22:38:34.549Z,18.75
2022-08-14T22:41:09.403Z,22.73
2022-08-14T22:43:31.705Z,18.17
2022-08-14T22:46:02.508Z,20.08
2022-08-14T22:48:29.957Z,19.27
2022-08-14T22:50:57.097Z,19.45
2022-08-14T22:53:29.450Z,23.60
2022-08-14T22:55:56.814Z,16.50
2022-08-14T22:58:30.256Z,18.20
2022-08-14T23:01:01.318Z,18.88
2022-08-14T23:03:28.994Z,19.13
2022-08-14T23:05:57.264Z,20.75
2022-08-14T23:09:00.056Z,21.67
2022-08-14T23:11:12.614Z,20.70
2022-08-14T23:13:43.385Z,22.98
2022-08-14T23:16:11.065Z,21.67
2022-08-14T23:18:47.620Z,21.05
2022-08-14T23:21:24.419Z,19.25
2022-08-14T23:23:54.754Z,19.13
2022-08-14T23:26:47.929Z,21.35
2022-08-14T23:29:12.495Z,20.13
2022-08-14T23:31:40.037Z,20.85
2022-08-14T23:34:20.276Z,20.30
2022-08-14T23:36:55.426Z,19.73
2022-08-14T23:39:29.687Z,18.60
2022-08-14T23:42:02.314Z,20.50
2022-08-14T23:44:34.761Z,17.02
2022-08-14T23:47:11.003Z,18.92
2022-08-14T23:50:00.092Z,18.17
2022-08-14T23:52:50.150Z,22.13
2022-08-14T23:55:16.051Z,19.38
2022-08-14T23:57:58.517Z,20.27
